createdAt,value
2023-02-14T00:01:15.959Z,11.88
2023-02-14T00:03:43.258Z,13.90
2023-02-14T00:06:14.008Z,12.05
2023-02-14T00:08:44.534Z,14.18
2023-02-14T00:11:13.529Z,14.63
2023-02-14T00:14:00.767Z,13.85
2023-02-14T00:16:27.951Z,17.75
2023-02-14T00:19:04.287Z,12.85
2023-02-14T00:21:36.259Z,10.50
2023-02-14T00:24:25.494Z,12.32
2023-02-14T00:26:53.449Z,12.07
2023-02-14T00:29:23.356Z,15.68
2023-02-14T00:31:51.210Z,14.02
2023-02-14T00:34:19.345Z,13.43
2023-02-14T00:36:47.395Z,16.70
2023-02-14T00:39:17.740Z,14.52
2023-02-14T00:41:45.291Z,14.88
2023-02-14T00:44:13.709Z,11.85
2023-02-14T00:46:41.287Z,11.88
2023-02-14T00:49:08.894Z,11.63
2023-02-14T00:51:38.827Z,9.55
2023-02-14T00:54:06.529Z,11.60
2023-02-14T00:56:34.023Z,10.38
2023-02-14T00:59:01.895Z,15.25
2023-02-14T01:01:29.595Z,11.10
2023-02-14T01:03:56.864Z,14.57
2023-02-14T01:06:23.996Z,14.63
2023-02-14T01:08:51.314Z,15.43
2023-02-14T01:11:21.538Z,17.48
2023-02-14T01:13:50.557Z,9.35
2023-02-14T01:16:20.301Z,7.68
2023-02-14T01:18:48.058Z,11.80
2023-02-14T01:21:28.797Z,8.88
2023-02-14T01:23:59.546Z,15.05
2023-02-14T01:26:28.700Z,12.90
2023-02-14T01:28:56.877Z,16.23
2023-02-14T01:31:29.444Z,16.50
2023-02-14T01:33:57.998Z,11.30
2023-02-14T01:36:26.744Z,10.20
2023-02-14T01:39:02.686Z,11.95
2023-02-14T01:41:33.523Z,8.63
2023-02-14T01:44:04.378Z,13.77
2023-02-14T01:46:36.906Z,14.75
2023-02-14T01:49:20.954Z,14.93
2023-02-14T01:52:14.356Z,14.98
2023-02-14T01:54:50.079Z,14.83
2023-02-14T01:57:21.500Z,13.98
2023-02-14T01:59:54.568Z,11.32
2023-02-14T02:02:24.308Z,13.77
2023-02-14T02:04:56.206Z,14.55
2023-02-14T02:07:29.449Z,15.02
2023-02-14T02:10:01.643Z,15.48
2023-02-14T02:12:30.870Z,16.50
2023-02-14T02:15:00.173Z,15.18
2023-02-14T02:17:53.462Z,12.10
2023-02-14T02:20:29.289Z,13.52
2023-02-14T02:23:12.289Z,15.45
2023-02-14T02:25:57.451Z,12.57
2023-02-14T02:28:30.572Z,11.68
2023-02-14T02:31:18.645Z,8.00
2023-02-14T02:34:04.163Z,13.73
2023-02-14T02:36:44.718Z,10.43
2023-02-14T02:39:25.845Z,10.13
2023-02-14T02:42:25.392Z,11.52
2023-02-14T02:45:06.872Z,12.40
2023-02-14T02:47:39.351Z,13.97
2023-02-14T02:50:48.118Z,14.75
2023-02-14T02:53:20.353Z,15.35
2023-02-14T02:58:56.160Z,15.05
2023-02-14T03:01:34.261Z,13.40
2023-02-14T03:04:24.191Z,9.70
2023-02-14T03:06:52.287Z,11.02
2023-02-14T03:09:19.346Z,8.77
2023-02-14T03:12:13.515Z,10.93
2023-02-14T03:14:59.345Z,12.48
2023-02-14T03:17:51.519Z,12.00
2023-02-14T03:20:33.421Z,12.90
2023-02-14T03:23:14.814Z,13.23
2023-02-14T03:25:42.589Z,11.98
2023-02-14T03:28:20.032Z,11.70
2023-02-14T03:31:05.231Z,10.32
2023-02-14T03:33:47.376Z,12.57
2023-02-14T03:36:23.741Z,7.60
2023-02-14T03:38:56.225Z,12.73
2023-02-14T03:41:30.366Z,15.00
2023-02-14T03:44:02.071Z,16.35
2023-02-14T03:46:45.489Z,16.17
2023-02-14T03:49:17.931Z,12.40
2023-02-14T03:51:49.492Z,11.27
2023-02-14T03:54:20.294Z,13.40
2023-02-14T03:56:52.701Z,12.02
2023-02-14T03:59:26.614Z,12.10
2023-02-14T04:02:41.431Z,11.75
2023-02-14T04:05:23.261Z,13.80
2023-02-14T04:07:53.863Z,12.93
2023-02-14T04:10:22.333Z,13.57
2023-02-14T04:12:50.025Z,13.25
2023-02-14T04:15:17.557Z,13.63
2023-02-14T04:18:03.518Z,9.27
2023-02-14T04:20:30.899Z,13.90
2023-02-14T04:22:58.136Z,12.77
2023-02-14T04:25:25.491Z,14.50
2023-02-14T04:27:52.647Z,9.85
2023-02-14T04:30:21.231Z,11.02
2023-02-14T04:32:48.640Z,13.35
2023-02-14T04:35:16.207Z,13.65
2023-02-14T04:37:43.554Z,13.20
2023-02-14T04:40:11.217Z,12.77
2023-02-14T04:42:38.369Z,14.63
2023-02-14T04:45:05.708Z,14.20
2023-02-14T04:47:32.868Z,12.65
2023-02-14T04:50:00.061Z,13.68
2023-02-14T04:52:27.662Z,15.15
2023-02-14T04:54:54.861Z,11.48
2023-02-14T04:57:21.883Z,15.02
2023-02-14T04:59:49.050Z,13.98
2023-02-14T05:02:16.197Z,16.23
2023-02-14T05:04:43.442Z,12.48
2023-02-14T05:07:10.529Z,11.98
2023-02-14T05:09:37.716Z,10.50
2023-02-14T05:12:04.925Z,11.30
2023-02-14T05:14:32.191Z,11.63
2023-02-14T05:16:59.429Z,12.57
2023-02-14T05:19:26.791Z,12.80
2023-02-14T05:21:53.884Z,10.15
2023-02-14T05:24:21.134Z,11.10
2023-02-14T05:26:48.229Z,11.32
2023-02-14T05:29:15.344Z,9.63
2023-02-14T05:31:42.494Z,10.02
2023-02-14T05:34:09.804Z,8.65
2023-02-14T05:36:37.020Z,11.40
2023-02-14T05:39:04.679Z,6.75
2023-02-14T05:41:31.884Z,5.32
2023-02-14T05:43:58.979Z,11.05
2023-02-14T05:46:26.069Z,12.02
2023-02-14T05:48:53.288Z,13.27
2023-02-14T05:51:20.356Z,11.35
2023-02-14T05:53:47.413Z,9.18
2023-02-14T05:56:14.757Z,8.20
2023-02-14T05:58:41.879Z,8.52
2023-02-14T06:01:09.034Z,10.38
2023-02-14T06:03:36.191Z,9.38
2023-02-14T06:06:03.685Z,10.65
2023-02-14T06:08:30.836Z,11.55
2023-02-14T06:10:58.240Z,12.27
2023-02-14T06:13:25.683Z,10.77
2023-02-14T06:15:52.786Z,10.32
2023-02-14T06:18:19.835Z,7.63
2023-02-14T06:20:46.969Z,10.15
2023-02-14T06:23:14.055Z,10.35
2023-02-14T06:25:41.296Z,10.50
2023-02-14T06:28:08.378Z,6.88
2023-02-14T06:30:35.589Z,9.82
2023-02-14T06:33:02.793Z,5.40
2023-02-14T06:35:29.991Z,5.63
2023-02-14T06:37:57.059Z,11.93
2023-02-14T06:40:24.496Z,11.50
2023-02-14T06:42:51.612Z,7.65
2023-02-14T06:45:18.902Z,12.05
2023-02-14T06:47:46.521Z,10.57
2023-02-14T06:50:13.730Z,11.95
2023-02-14T06:52:42.492Z,11.90
2023-02-14T06:55:09.789Z,12.73
2023-02-14T06:57:36.923Z,13.23
2023-02-14T07:00:04.745Z,9.18
2023-02-14T07:02:31.846Z,6.28
2023-02-14T07:04:58.985Z,9.40
2023-02-14T07:07:26.240Z,6.25
2023-02-14T07:09:53.359Z,10.93
2023-02-14T07:12:20.400Z,10.82
2023-02-14T07:14:47.545Z,9.90
2023-02-14T07:17:14.594Z,11.25
2023-02-14T07:19:41.740Z,10.45
2023-02-14T07:22:08.936Z,10.57
2023-02-14T07:24:36.149Z,7.90
2023-02-14T07:27:03.383Z,8.48
2023-02-14T07:29:30.590Z,6.85
2023-02-14T07:31:57.683Z,7.40
2023-02-14T07:34:25.050Z,10.55
2023-02-14T07:36:52.155Z,11.18
2023-02-14T07:39:19.349Z,10.27
2023-02-14T07:41:46.474Z,10.18
2023-02-14T07:44:16.886Z,10.68
2023-02-14T07:46:44.159Z,10.93
2023-02-14T07:49:12.248Z,9.60
2023-02-14T07:51:39.386Z,7.35
2023-02-14T07:54:06.528Z,13.30
2023-02-14T07:56:34.033Z,7.97
2023-02-14T07:59:01.173Z,9.85
2023-02-14T08:01:28.683Z,10.48
2023-02-14T08:03:55.852Z,9.10
2023-02-14T08:06:23.109Z,7.88
2023-02-14T08:08:50.277Z,4.35
2023-02-14T08:11:37.408Z,8.55
2023-02-14T08:14:05.572Z,8.73
2023-02-14T08:16:34.605Z,7.70
2023-02-14T08:19:02.277Z,9.55
2023-02-14T08:21:29.502Z,9.98
2023-02-14T08:23:57.073Z,8.52
2023-02-14T08:26:24.952Z,8.40
2023-02-14T08:28:52.084Z,7.30
2023-02-14T08:31:36.759Z,6.85
2023-02-14T08:34:07.666Z,6.93
2023-02-14T08:36:35.317Z,6.55
2023-02-14T08:39:05.608Z,6.97
2023-02-14T08:41:34.194Z,8.68
2023-02-14T08:44:02.170Z,8.60
2023-02-14T08:46:29.464Z,6.22
2023-02-14T08:48:56.784Z,6.97
2023-02-14T08:51:23.925Z,8.50
2023-02-14T08:53:52.219Z,7.40
2023-02-14T08:56:21.702Z,8.90
2023-02-14T08:58:52.740Z,9.65
2023-02-14T09:01:20.070Z,9.80
2023-02-14T09:03:47.695Z,9.38
2023-02-14T09:06:17.772Z,8.50
2023-02-14T09:08:45.815Z,9.55
2023-02-14T09:11:16.016Z,8.00
2023-02-14T09:13:43.485Z,6.88
2023-02-14T09:16:12.453Z,9.38
2023-02-14T09:18:39.830Z,8.05
2023-02-14T09:21:11.928Z,8.95
2023-02-14T09:23:39.739Z,8.77
2023-02-14T09:26:10.111Z,8.10
2023-02-14T09:28:37.655Z,6.63
2023-02-14T09:31:19.943Z,6.75
2023-02-14T09:33:49.387Z,6.55
2023-02-14T09:36:16.599Z,6.95
2023-02-14T09:38:43.810Z,7.32
2023-02-14T09:41:41.292Z,8.77
2023-02-14T09:44:16.174Z,8.35
2023-02-14T09:46:50.962Z,6.68
2023-02-14T09:49:24.080Z,8.68
2023-02-14T09:51:53.924Z,7.22
2023-02-14T09:54:26.672Z,7.90
2023-02-14T09:57:09.197Z,7.47
2023-02-14T09:59:58.645Z,8.38
2023-02-14T10:02:31.633Z,8.02
2023-02-14T10:05:06.984Z,7.40
2023-02-14T10:07:44.233Z,8.13
2023-02-14T10:10:16.894Z,6.93
2023-02-14T10:12:50.584Z,8.48
2023-02-14T10:15:42.062Z,6.25
2023-02-14T10:18:40.698Z,8.23
2023-02-14T10:21:14.338Z,8.23
2023-02-14T10:23:49.704Z,8.32
2023-02-14T10:26:25.285Z,6.00
2023-02-14T10:28:54.613Z,8.27
2023-02-14T10:31:42.108Z,7.18
2023-02-14T10:34:29.493Z,8.65
2023-02-14T10:37:04.022Z,7.85
2023-02-14T10:39:56.962Z,7.53
2023-02-14T10:42:35.999Z,8.38
2023-02-14T10:45:15.806Z,7.93
2023-02-14T10:48:17.068Z,7.00
2023-02-14T10:51:04.489Z,7.35
2023-02-14T10:54:09.088Z,8.20
2023-02-14T10:56:42.456Z,8.20
2023-02-14T10:59:22.276Z,9.55
2023-02-14T11:01:53.520Z,6.97
2023-02-14T11:04:24.229Z,6.10
2023-02-14T11:06:52.175Z,8.32
2023-02-14T11:09:20.140Z,8.65
2023-02-14T11:12:00.524Z,8.40
2023-02-14T11:14:36.873Z,10.00
2023-02-14T11:17:30.501Z,5.80
2023-02-14T11:20:02.938Z,8.90
2023-02-14T11:25:07.929Z,7.60
2023-02-14T11:27:37.809Z,7.47
2023-02-14T11:30:19.251Z,7.57
2023-02-14T11:32:56.500Z,8.75
2023-02-14T11:35:34.769Z,8.00
2023-02-14T11:38:07.527Z,6.75
2023-02-14T11:40:39.957Z,8.18
2023-02-14T11:43:16.238Z,8.90
2023-02-14T11:45:46.241Z,9.10
2023-02-14T11:48:39.613Z,8.82
2023-02-14T11:51:15.964Z,8.93
2023-02-14T11:53:48.768Z,9.52
2023-02-14T11:56:18.236Z,10.68
2023-02-14T11:58:49.219Z,9.25
2023-02-14T12:01:26.175Z,9.63
2023-02-14T12:03:57.827Z,10.43
2023-02-14T12:06:27.961Z,8.90
2023-02-14T12:09:22.383Z,9.60
2023-02-14T12:11:56.144Z,11.00
2023-02-14T12:14:24.876Z,10.40
2023-02-14T12:17:14.484Z,10.20
2023-02-14T12:19:44.569Z,9.73
2023-02-14T12:22:37.594Z,9.68
2023-02-14T12:25:17.308Z,9.93
2023-02-14T12:28:04.676Z,12.52
2023-02-14T12:30:34.492Z,9.73
2023-02-14T12:33:01.968Z,10.55
2023-02-14T12:35:47.195Z,10.35
2023-02-14T12:38:34.783Z,9.90
2023-02-14T12:41:30.134Z,9.63
2023-02-14T12:44:00.856Z,9.25
2023-02-14T12:46:57.858Z,10.52
2023-02-14T12:49:43.185Z,9.93
2023-02-14T12:52:26.817Z,9.52
2023-02-14T12:55:12.237Z,10.68
2023-02-14T12:58:24.436Z,10.35
2023-02-14T13:01:24.644Z,9.00
2023-02-14T13:04:39.973Z,9.15
2023-02-14T13:07:40.653Z,8.80
2023-02-14T13:10:49.193Z,8.57
2023-02-14T13:13:40.728Z,9.13
2023-02-14T13:16:31.695Z,9.25
2023-02-14T13:19:33.128Z,9.00
2023-02-14T13:22:01.932Z,8.63
2023-02-14T13:24:54.642Z,9.18
2023-02-14T13:27:29.333Z,9.15
2023-02-14T13:30:14.839Z,8.55
2023-02-14T13:32:47.538Z,9.65
2023-02-14T13:35:20.282Z,7.88
2023-02-14T13:37:54.528Z,9.65
2023-02-14T13:40:25.217Z,9.10
2023-02-14T13:42:55.570Z,8.07
2023-02-14T13:45:41.156Z,9.02
2023-02-14T13:48:21.120Z,8.88
2023-02-14T13:51:08.634Z,7.90
2023-02-14T13:53:43.154Z,8.57
2023-02-14T13:56:12.937Z,8.88
2023-02-14T13:59:05.734Z,9.15
2023-02-14T14:01:32.938Z,9.52
2023-02-14T14:04:04.783Z,7.40
2023-02-14T14:07:00.822Z,8.95
2023-02-14T14:09:43.048Z,8.20
2023-02-14T14:12:28.758Z,8.77
2023-02-14T14:15:05.239Z,8.20
2023-02-14T14:17:33.787Z,8.73
2023-02-14T14:20:02.658Z,9.82
2023-02-14T14:22:30.362Z,8.75
2023-02-14T14:25:05.236Z,10.25
2023-02-14T14:27:42.015Z,9.63
2023-02-14T14:30:33.439Z,9.57
2023-02-14T14:33:24.104Z,7.95
2023-02-14T14:36:15.697Z,9.68
2023-02-14T14:38:54.668Z,9.25
2023-02-14T14:41:29.860Z,8.98
2023-02-14T14:43:59.398Z,9.10
2023-02-14T14:46:26.693Z,9.80
2023-02-14T14:48:56.836Z,9.55
2023-02-14T14:51:30.157Z,9.73
2023-02-14T14:54:14.048Z,9.35
2023-02-14T14:57:03.331Z,9.68
2023-02-14T14:59:39.696Z,10.85
2023-02-14T15:02:27.816Z,10.43
2023-02-14T15:04:54.992Z,10.02
2023-02-14T15:07:35.013Z,7.22
2023-02-14T15:10:02.822Z,9.88
2023-02-14T15:12:48.985Z,10.13
2023-02-14T15:15:18.259Z,10.18
2023-02-14T15:17:46.477Z,9.98
2023-02-14T15:20:23.359Z,10.77
2023-02-14T15:22:53.074Z,9.13
2023-02-14T15:25:29.639Z,10.43
2023-02-14T15:27:57.570Z,10.43
2023-02-14T15:30:31.047Z,9.68
2023-02-14T15:32:58.978Z,9.70
2023-02-14T15:35:29.879Z,10.98
2023-02-14T15:38:01.901Z,10.60
2023-02-14T15:40:32.642Z,9.77
2023-02-14T15:43:14.215Z,10.20
2023-02-14T15:45:43.221Z,10.05
2023-02-14T15:48:18.794Z,10.73
2023-02-14T15:50:56.189Z,9.02
2023-02-14T15:53:30.042Z,8.70
2023-02-14T15:56:35.530Z,8.95
2023-02-14T15:59:04.357Z,9.63
2023-02-14T16:01:33.268Z,10.10
2023-02-14T16:04:04.380Z,9.88
2023-02-14T16:06:40.229Z,8.88
2023-02-14T16:09:26.707Z,9.23
2023-02-14T16:11:54.331Z,9.40
2023-02-14T16:14:30.511Z,10.93
2023-02-14T16:17:30.903Z,10.23
2023-02-14T16:19:58.722Z,12.52
2023-02-14T16:22:32.355Z,9.50
2023-02-14T16:24:59.833Z,10.10
2023-02-14T16:27:27.363Z,11.25
2023-02-14T16:29:54.560Z,13.32
2023-02-14T16:32:23.753Z,13.63
2023-02-14T16:34:51.481Z,10.90
2023-02-14T16:37:29.713Z,10.88
2023-02-14T16:39:57.996Z,10.25
2023-02-14T16:42:25.528Z,10.13
2023-02-14T16:44:52.764Z,12.23
2023-02-14T16:47:21.141Z,9.15
2023-02-14T16:49:48.854Z,11.07
2023-02-14T16:52:23.994Z,8.77
2023-02-14T16:54:51.475Z,10.63
2023-02-14T16:57:33.025Z,12.10
2023-02-14T17:00:00.759Z,12.43
2023-02-14T17:02:28.750Z,11.23
2023-02-14T17:04:56.036Z,8.18
2023-02-14T17:07:23.791Z,11.95
2023-02-14T17:09:56.649Z,10.63
2023-02-14T17:12:30.948Z,11.20
2023-02-14T17:15:08.578Z,15.77
2023-02-14T17:17:36.608Z,13.05
2023-02-14T17:20:08.469Z,12.90
2023-02-14T17:22:37.242Z,8.20
2023-02-14T17:25:05.803Z,9.13
2023-02-14T17:27:32.884Z,7.80
2023-02-14T17:30:00.159Z,9.98
2023-02-14T17:32:30.234Z,10.55
2023-02-14T17:34:57.572Z,13.55
2023-02-14T17:37:24.847Z,12.23
2023-02-14T17:39:53.246Z,6.80
2023-02-14T17:42:20.323Z,10.52
2023-02-14T17:44:47.372Z,8.65
2023-02-14T17:47:16.406Z,8.93
2023-02-14T17:49:47.398Z,11.40
2023-02-14T17:52:15.937Z,7.95
2023-02-14T17:54:43.485Z,8.85
2023-02-14T17:57:10.805Z,11.13
2023-02-14T17:59:38.082Z,9.73
2023-02-14T18:02:05.576Z,15.63
2023-02-14T18:04:35.304Z,10.88
2023-02-14T18:07:02.549Z,8.98
2023-02-14T18:09:29.697Z,13.63
2023-02-14T18:11:56.869Z,11.98
2023-02-14T18:14:24.846Z,13.00
2023-02-14T18:16:51.981Z,6.78
2023-02-14T18:19:19.312Z,7.60
2023-02-14T18:21:46.610Z,14.35
2023-02-14T18:24:15.696Z,9.95
2023-02-14T18:26:44.032Z,8.13
2023-02-14T18:29:12.941Z,6.53
2023-02-14T18:31:42.451Z,7.00
2023-02-14T18:34:10.069Z,8.82
2023-02-14T18:36:39.389Z,10.02
2023-02-14T18:39:07.593Z,8.32
2023-02-14T18:41:35.156Z,12.18
2023-02-14T18:44:02.917Z,7.50
2023-02-14T18:46:33.395Z,6.70
2023-02-14T18:49:00.610Z,8.70
2023-02-14T18:51:31.289Z,8.85
2023-02-14T18:54:00.576Z,7.75
2023-02-14T18:56:30.364Z,9.60
2023-02-14T18:59:01.504Z,7.97
2023-02-14T19:01:32.521Z,9.65
2023-02-14T19:04:01.461Z,8.40
2023-02-14T19:06:31.559Z,9.85
2023-02-14T19:08:58.758Z,8.25
2023-02-14T19:11:31.687Z,8.88
2023-02-14T19:14:01.240Z,8.25
2023-02-14T19:16:31.642Z,10.95
2023-02-14T19:18:59.682Z,10.50
2023-02-14T19:21:31.022Z,9.70
2023-02-14T19:23:58.525Z,8.33
2023-02-14T19:26:29.950Z,9.20
2023-02-14T19:29:00.035Z,9.13
2023-02-14T19:31:27.890Z,9.13
2023-02-14T19:33:55.169Z,10.75
2023-02-14T19:36:24.343Z,10.52
2023-02-14T19:38:53.106Z,9.00
2023-02-14T19:41:30.594Z,7.40
2023-02-14T19:43:59.601Z,13.70
2023-02-14T19:46:28.192Z,9.07
2023-02-14T19:48:59.191Z,10.63
2023-02-14T19:51:29.540Z,11.75
2023-02-14T19:53:59.376Z,11.20
2023-02-14T19:56:29.474Z,11.48
2023-02-14T19:58:57.099Z,13.15
2023-02-14T20:01:36.965Z,13.20
2023-02-14T20:04:06.784Z,11.02
2023-02-14T20:06:33.963Z,11.95
2023-02-14T20:09:01.147Z,13.35
2023-02-14T20:11:39.424Z,11.40
2023-02-14T20:14:07.926Z,9.70
2023-02-14T20:16:37.127Z,11.88
2023-02-14T20:19:08.465Z,15.65
2023-02-14T20:21:35.730Z,13.67
2023-02-14T20:24:04.359Z,11.75
2023-02-14T20:26:34.013Z,12.70
2023-02-14T20:29:06.935Z,18.55
2023-02-14T20:31:34.621Z,12.30
2023-02-14T20:34:02.484Z,12.73
2023-02-14T20:36:30.808Z,11.25
2023-02-14T20:39:00.754Z,10.02
2023-02-14T20:41:29.029Z,14.77
2023-02-14T20:44:03.373Z,14.10
2023-02-14T20:46:32.269Z,12.52
2023-02-14T20:48:59.553Z,13.82
2023-02-14T20:51:27.099Z,19.00
2023-02-14T20:53:54.847Z,14.68
2023-02-14T20:56:25.695Z,14.93
2023-02-14T20:58:52.834Z,15.43
2023-02-14T21:01:22.891Z,13.40
2023-02-14T21:03:52.057Z,10.93
2023-02-14T21:06:21.963Z,16.42
2023-02-14T21:08:49.500Z,16.35
2023-02-14T21:11:19.126Z,13.02
2023-02-14T21:13:46.726Z,11.52
2023-02-14T21:16:17.130Z,13.77
2023-02-14T21:18:48.877Z,13.40
2023-02-14T21:21:20.370Z,14.00
2023-02-14T21:23:51.738Z,12.50
2023-02-14T21:26:20.459Z,15.43
2023-02-14T21:28:48.249Z,8.70
2023-02-14T21:31:20.986Z,11.68
2023-02-14T21:33:53.890Z,11.45
2023-02-14T21:36:23.129Z,8.55
2023-02-14T21:38:50.882Z,9.32
2023-02-14T21:41:26.825Z,10.40
2023-02-14T21:43:55.235Z,10.25
2023-02-14T21:46:27.746Z,14.65
2023-02-14T21:49:14.446Z,10.93
2023-02-14T21:51:42.173Z,7.38
2023-02-14T21:54:11.391Z,10.85
2023-02-14T21:56:39.522Z,9.75
2023-02-14T21:59:06.971Z,11.07
2023-02-14T22:01:38.192Z,11.73
2023-02-14T22:04:09.447Z,13.27
2023-02-14T22:06:38.782Z,13.18
2023-02-14T22:09:06.219Z,9.85
2023-02-14T22:11:34.097Z,11.02
2023-02-14T22:14:01.832Z,10.18
2023-02-14T22:16:29.068Z,12.15
2023-02-14T22:18:56.519Z,9.20
2023-02-14T22:21:26.978Z,10.73
2023-02-14T22:23:55.750Z,8.48
2023-02-14T22:26:28.910Z,11.43
2023-02-14T22:28:59.407Z,9.02
2023-02-14T22:31:29.202Z,10.25
2023-02-14T22:33:56.997Z,9.30
2023-02-14T22:36:24.570Z,7.45
2023-02-14T22:38:51.865Z,11.32
2023-02-14T22:41:23.472Z,11.90
2023-02-14T22:43:51.935Z,13.23
2023-02-14T22:46:25.439Z,9.25
2023-02-14T22:48:53.406Z,12.63
2023-02-14T22:51:26.825Z,12.15
2023-02-14T22:53:56.637Z,13.90
2023-02-14T22:56:33.388Z,13.48
2023-02-14T22:59:02.740Z,13.23
2023-02-14T23:01:29.858Z,12.73
2023-02-14T23:03:59.968Z,9.73
2023-02-14T23:06:30.246Z,12.98
2023-02-14T23:08:57.555Z,10.20
2023-02-14T23:11:31.224Z,9.30
2023-02-14T23:14:17.835Z,9.05
2023-02-14T23:17:03.753Z,5.75
2023-02-14T23:19:52.339Z,7.65
2023-02-14T23:22:25.261Z,11.55
2023-02-14T23:24:54.637Z,15.18
2023-02-14T23:27:25.402Z,10.15
2023-02-14T23:29:52.750Z,5.75
2023-02-14T23:32:19.822Z,8.30
2023-02-14T23:34:47.004Z,6.53
2023-02-14T23:37:15.069Z,10.95
2023-02-14T23:39:42.583Z,7.93
2023-02-14T23:42:12.576Z,9.32
2023-02-14T23:44:40.339Z,9.68
2023-02-14T23:47:09.067Z,11.90
2023-02-14T23:49:39.173Z,7.90
2023-02-14T23:52:11.882Z,7.70
2023-02-14T23:54:40.871Z,7.72
2023-02-14T23:57:08.921Z,5.78
2023-02-14T23:59:36.415Z,7.35
